Time;durP1;ratioP1;P1;durP2;ratioP2;P2;SDS_P1;SDS_P2;PMS_P1;PMS_P2;Temp;Humidity;BMP_temperature;BMP_pressure;BME280_temperature;BME280_humidity;BME280_pressure;Samples;Min_cycle;Max_cycle;Signal;HPM_P1;HPM_P2
2023/05/10 00:00:46;;;;;;;12.30;7.95;;;13.90;99.90;;;;;;5133809;28;20035;-83
2023/05/10 00:03:13;;;;;;;12.10;8.18;;;13.90;99.90;;;;;;5116335;28;20047;-83
2023/05/10 00:05:40;;;;;;;14.07;9.20;;;13.90;99.90;;;;;;5136781;27;20444;-83
2023/05/10 00:08:06;;;;;;;12.30;8.25;;;13.90;99.90;;;;;;5137075;27;20386;-82
2023/05/10 00:10:33;;;;;;;14.68;8.65;;;13.90;99.90;;;;;;5137015;27;20043;-84
2023/05/10 00:13:00;;;;;;;12.20;8.48;;;13.90;99.90;;;;;;5120192;27;20039;-84
2023/05/10 00:15:27;;;;;;;12.60;8.25;;;13.90;99.90;;;;;;5136813;27;20039;-83
2023/05/10 00:17:53;;;;;;;12.48;8.88;;;13.80;99.90;;;;;;5120046;27;20043;-83
2023/05/10 00:20:20;;;;;;;14.82;8.75;;;13.80;99.90;;;;;;5119593;27;20038;-83
2023/05/10 00:22:47;;;;;;;13.65;9.27;;;13.90;99.90;;;;;;5119931;27;20108;-83
2023/05/10 00:25:13;;;;;;;12.82;8.77;;;13.80;99.90;;;;;;5133265;28;20051;-83
2023/05/10 00:27:40;;;;;;;12.38;8.70;;;13.80;99.90;;;;;;5116284;28;20036;-83
2023/05/10 00:30:07;;;;;;;13.68;8.75;;;13.80;99.90;;;;;;5116208;28;20154;-83
2023/05/10 00:32:34;;;;;;;12.48;8.52;;;13.80;99.90;;;;;;5099598;28;20043;-84
2023/05/10 00:35:01;;;;;;;14.75;9.38;;;13.80;99.90;;;;;;5117935;28;20036;-84
2023/05/10 00:37:27;;;;;;;13.90;9.07;;;13.80;99.90;;;;;;5115594;28;20523;-84
2023/05/10 00:39:54;;;;;;;10.07;6.38;;;13.80;99.90;;;;;;5116007;28;20040;-84
2023/05/10 00:42:21;;;;;;;7.78;4.85;;;13.70;99.90;;;;;;5115763;28;20040;-84
2023/05/10 00:44:47;;;;;;;7.45;4.15;;;13.60;99.90;;;;;;5133270;28;20036;-83
2023/05/10 00:47:15;;;;;;;7.50;4.00;;;13.50;99.90;;;;;;5132593;28;20080;-84
2023/05/10 00:49:43;;;;;;;5.07;3.10;;;13.50;99.90;;;;;;5132769;28;20040;-84
2023/05/10 00:52:10;;;;;;;4.95;3.08;;;13.40;99.90;;;;;;5115998;28;20043;-84
2023/05/10 00:54:37;;;;;;;5.05;3.45;;;13.30;99.90;;;;;;5115681;28;20027;-83
2023/05/10 00:57:04;;;;;;;7.13;4.55;;;13.20;99.90;;;;;;5132665;28;20031;-83
2023/05/10 00:59:32;;;;;;;10.98;4.95;;;13.20;99.90;;;;;;5115565;28;20063;-83
2023/05/10 01:01:58;;;;;;;10.02;5.03;;;13.10;99.90;;;;;;5115964;28;20047;-84
2023/05/10 01:04:25;;;;;;;13.98;5.55;;;13.10;99.90;;;;;;5131888;28;20035;-83
2023/05/10 01:06:53;;;;;;;9.30;5.82;;;13.00;99.90;;;;;;5148855;28;20391;-83
2023/05/10 01:09:21;;;;;;;8.95;5.93;;;13.00;99.90;;;;;;5148764;27;20402;-83
2023/05/10 01:11:48;;;;;;;11.25;6.15;;;13.00;99.90;;;;;;5135885;27;20038;-84
2023/05/10 01:14:18;;;;;;;8.45;5.95;;;12.90;99.90;;;;;;5119144;27;20044;-83
2023/05/10 01:16:46;;;;;;;9.68;6.15;;;12.80;99.90;;;;;;5130706;28;20399;-84
2023/05/10 01:19:21;;;;;;;8.63;6.03;;;12.80;99.90;;;;;;5115799;28;20048;-83
2023/05/10 01:22:30;;;;;;;10.45;6.18;;;12.80;99.90;;;;;;5149361;27;20085;-83
2023/05/10 01:25:29;;;;;;;10.52;6.03;;;12.80;99.90;;;;;;5152897;27;20047;-83
2023/05/10 01:27:58;;;;;;;8.63;6.25;;;12.80;99.90;;;;;;5142154;27;20130;-84
2023/05/10 01:31:10;;;;;;;9.43;6.55;;;12.80;99.90;;;;;;5169487;27;20043;-84
2023/05/10 01:33:49;;;;;;;10.07;5.85;;;12.70;99.90;;;;;;5093405;28;20548;-83
2023/05/10 01:36:30;;;;;;;8.80;6.05;;;12.70;99.90;;;;;;5093767;28;20047;-83
2023/05/10 01:39:00;;;;;;;9.98;5.97;;;12.70;99.90;;;;;;5119142;27;20115;-84
2023/05/10 01:41:43;;;;;;;11.05;7.47;;;12.70;99.90;;;;;;5169460;27;20043;-84
2023/05/10 01:44:42;;;;;;;9.15;6.03;;;12.70;99.90;;;;;;5169332;27;20446;-83
2023/05/10 01:47:14;;;;;;;12.13;6.35;;;12.70;99.90;;;;;;5126431;27;20107;-83
2023/05/10 01:50:03;;;;;;;10.80;7.03;;;12.70;99.90;;;;;;5131466;28;20511;-84
2023/05/10 01:52:45;;;;;;;9.93;6.53;;;12.70;99.90;;;;;;5131563;28;20031;-83
2023/05/10 01:55:15;;;;;;;13.57;6.72;;;12.70;99.90;;;;;;5131579;28;20035;-84
2023/05/10 01:57:44;;;;;;;11.55;7.20;;;12.80;99.90;;;;;;5131221;28;20036;-84
2023/05/10 02:00:13;;;;;;;11.23;6.88;;;12.80;99.90;;;;;;5167633;27;20035;-83
2023/05/10 02:02:44;;;;;;;11.00;7.18;;;12.80;99.90;;;;;;5134814;27;20051;-84
2023/05/10 02:05:12;;;;;;;12.00;7.60;;;12.70;99.90;;;;;;5135140;27;20042;-83
2023/05/10 02:07:39;;;;;;;11.15;6.45;;;12.70;99.90;;;;;;5151592;27;20043;-83
2023/05/10 02:10:09;;;;;;;10.35;6.88;;;12.70;99.90;;;;;;5117938;27;20112;-84
2023/05/10 02:12:39;;;;;;;13.32;7.00;;;12.70;99.90;;;;;;5168283;27;20043;-84
2023/05/10 02:15:07;;;;;;;14.95;6.63;;;12.70;99.90;;;;;;5151677;27;20815;-84
2023/05/10 02:17:36;;;;;;;11.45;6.57;;;12.70;99.90;;;;;;5151502;27;20090;-84
2023/05/10 02:20:05;;;;;;;10.98;6.60;;;12.70;99.90;;;;;;5138000;28;20576;-84
2023/05/10 02:22:33;;;;;;;10.73;6.90;;;12.70;99.90;;;;;;5130820;28;20043;-84
2023/05/10 02:25:01;;;;;;;10.68;6.95;;;12.70;99.90;;;;;;5148058;28;20084;-84
2023/05/10 02:27:30;;;;;;;10.75;6.53;;;12.70;99.90;;;;;;5130535;28;20079;-83
2023/05/10 02:29:57;;;;;;;11.73;7.00;;;12.70;99.90;;;;;;5113811;28;20122;-83
2023/05/10 02:32:27;;;;;;;11.77;7.22;;;12.70;99.90;;;;;;5113901;28;20044;-84
2023/05/10 02:34:55;;;;;;;9.95;6.32;;;12.70;99.90;;;;;;5130492;28;20043;-84
2023/05/10 02:37:23;;;;;;;14.43;7.65;;;12.70;99.90;;;;;;5113578;28;20048;-84
2023/05/10 02:39:53;;;;;;;11.35;6.85;;;12.70;99.90;;;;;;5134805;27;20043;-84
2023/05/10 02:42:24;;;;;;;11.60;7.32;;;12.70;99.90;;;;;;5150549;27;20039;-84
2023/05/10 02:44:54;;;;;;;10.80;6.43;;;12.70;99.90;;;;;;5151079;27;20088;-84
2023/05/10 02:47:21;;;;;;;12.60;7.03;;;12.70;99.90;;;;;;5151446;27;20083;-84
2023/05/10 02:49:47;;;;;;;11.77;6.75;;;12.70;99.90;;;;;;5151181;27;20031;-84
2023/05/10 02:52:24;;;;;;;10.85;6.93;;;12.70;99.90;;;;;;5130352;28;20039;-84
2023/05/10 02:54:55;;;;;;;11.02;6.72;;;12.70;99.90;;;;;;5130286;28;20552;-84
2023/05/10 02:57:34;;;;;;;15.38;7.20;;;12.70;99.90;;;;;;5130488;28;20047;-85
2023/05/10 03:00:03;;;;;;;11.88;6.20;;;12.70;99.90;;;;;;5146996;28;20173;-84
2023/05/10 03:02:30;;;;;;;10.35;6.38;;;12.80;99.90;;;;;;5149068;27;20046;-84
2023/05/10 03:04:57;;;;;;;11.38;7.10;;;12.80;99.90;;;;;;5150470;27;20039;-84
2023/05/10 03:07:24;;;;;;;11.57;6.95;;;12.70;99.90;;;;;;5133633;27;20050;-84
2023/05/10 03:09:51;;;;;;;10.82;6.68;;;12.70;99.90;;;;;;5133520;27;20540;-84
2023/05/10 03:12:44;;;;;;;13.05;6.70;;;12.70;99.90;;;;;;5116763;27;20752;-84
2023/05/10 03:15:20;;;;;;;11.65;6.55;;;12.70;99.90;;;;;;5150963;27;20083;-84
2023/05/10 03:18:06;;;;;;;11.52;6.55;;;12.70;99.90;;;;;;5167355;27;20122;-82
2023/05/10 03:20:41;;;;;;;;;;;12.60;99.90;;;;;;5150808;27;20042;-82
2023/05/10 03:23:18;;;;;;;11.30;6.18;;;12.60;99.90;;;;;;5156484;27;19915;-82
2023/05/10 03:25:48;;;;;;;11.50;6.30;;;12.50;99.90;;;;;;5150189;27;20172;-82
2023/05/10 03:28:17;;;;;;;11.48;6.30;;;12.50;99.90;;;;;;5150397;27;20515;-82
2023/05/10 03:30:45;;;;;;;10.73;6.68;;;12.50;99.90;;;;;;5166994;27;20558;-82
2023/05/10 03:33:13;;;;;;;9.50;6.47;;;12.50;99.90;;;;;;5116654;28;20185;-82
2023/05/10 03:35:39;;;;;;;9.95;6.22;;;12.40;99.90;;;;;;5133341;28;20503;-81
2023/05/10 03:38:06;;;;;;;10.95;6.68;;;12.40;99.90;;;;;;5133141;28;20124;-82
2023/05/10 03:40:34;;;;;;;10.00;6.75;;;12.40;99.90;;;;;;5150406;28;20222;-82
2023/05/10 03:43:01;;;;;;;11.07;6.95;;;12.40;99.90;;;;;;5128650;28;20038;-82
2023/05/10 03:45:28;;;;;;;10.85;6.40;;;12.30;99.90;;;;;;5130049;28;20039;-82
2023/05/10 03:47:55;;;;;;;10.55;7.10;;;12.40;99.90;;;;;;5112740;28;20042;-82
2023/05/10 03:50:21;;;;;;;11.43;7.30;;;12.40;99.90;;;;;;5129736;28;20047;-82
2023/05/10 03:52:48;;;;;;;12.25;8.00;;;12.30;99.90;;;;;;5095383;28;20052;-82
2023/05/10 03:55:16;;;;;;;14.32;7.50;;;12.30;99.90;;;;;;5129589;28;20383;-82
2023/05/10 03:57:42;;;;;;;12.88;7.50;;;12.30;99.90;;;;;;5112386;28;20046;-82
2023/05/10 04:00:10;;;;;;;22.02;8.73;;;12.40;99.90;;;;;;5112382;28;20039;-83
2023/05/10 04:02:37;;;;;;;20.23;8.63;;;12.40;99.90;;;;;;5113717;28;20500;-83
2023/05/10 04:05:04;;;;;;;17.60;7.68;;;12.30;99.90;;;;;;5112665;28;20047;-82
2023/05/10 04:07:30;;;;;;;16.50;8.05;;;12.40;99.90;;;;;;5112690;28;20043;-83
2023/05/10 04:09:57;;;;;;;16.58;8.00;;;12.40;99.90;;;;;;5095646;28;20043;-82
2023/05/10 04:12:24;;;;;;;15.68;7.47;;;12.40;99.90;;;;;;5112755;28;20043;-82
2023/05/10 04:14:51;;;;;;;15.00;7.53;;;12.40;99.90;;;;;;5112152;28;20031;-83
2023/05/10 04:17:17;;;;;;;15.38;8.55;;;12.40;99.90;;;;;;5112482;28;20039;-83
2023/05/10 04:19:44;;;;;;;15.27;7.88;;;12.40;99.90;;;;;;5113012;28;20031;-83
2023/05/10 04:22:11;;;;;;;18.23;8.88;;;12.40;99.90;;;;;;5095741;28;20200;-83
2023/05/10 04:24:37;;;;;;;16.70;8.45;;;12.40;99.90;;;;;;5121445;28;20038;-83
2023/05/10 04:27:04;;;;;;;17.42;9.13;;;12.40;99.90;;;;;;5149977;28;20046;-83
2023/05/10 04:29:31;;;;;;;13.98;8.93;;;12.40;99.90;;;;;;5133043;28;20180;-83
2023/05/10 04:31:57;;;;;;;16.85;8.57;;;12.40;99.90;;;;;;5132727;28;20039;-83
2023/05/10 04:34:25;;;;;;;16.45;8.65;;;12.40;99.90;;;;;;5132557;28;20039;-83
2023/05/10 04:36:52;;;;;;;15.35;9.10;;;12.40;99.90;;;;;;5115860;28;20171;-83
2023/05/10 04:39:18;;;;;;;15.02;8.77;;;12.40;99.90;;;;;;5132509;28;20095;-83
2023/05/10 04:41:45;;;;;;;17.58;9.38;;;12.40;99.90;;;;;;5132841;27;20039;-83
2023/05/10 04:44:12;;;;;;;19.95;8.82;;;12.50;99.90;;;;;;5136104;27;20118;-83
2023/05/10 04:46:38;;;;;;;16.50;9.38;;;12.50;99.90;;;;;;5136415;27;20042;-83
2023/05/10 04:49:05;;;;;;;14.00;8.43;;;12.50;99.90;;;;;;5136008;27;20035;-83
2023/05/10 04:51:32;;;;;;;17.63;9.23;;;12.50;99.90;;;;;;5136616;27;20050;-83
2023/05/10 04:53:59;;;;;;;17.13;9.73;;;12.50;99.90;;;;;;5135746;27;20403;-83
2023/05/10 04:56:25;;;;;;;17.25;8.88;;;12.50;99.90;;;;;;5115640;28;20513;-83
2023/05/10 04:58:52;;;;;;;15.77;9.32;;;12.50;99.90;;;;;;5115234;28;20083;-83
2023/05/10 05:01:19;;;;;;;14.63;9.13;;;12.50;99.90;;;;;;5115882;28;20035;-83
2023/05/10 05:03:45;;;;;;;16.65;8.43;;;12.50;99.90;;;;;;5115876;28;20122;-83
2023/05/10 05:06:12;;;;;;;16.77;8.38;;;12.40;99.90;;;;;;5104502;28;20097;-83
2023/05/10 05:08:39;;;;;;;12.35;7.80;;;12.40;99.90;;;;;;5125807;28;20127;-83
2023/05/10 05:11:05;;;;;;;19.35;8.70;;;12.40;99.90;;;;;;5115178;28;20040;-83
2023/05/10 05:13:32;;;;;;;15.15;8.55;;;12.50;99.90;;;;;;5115412;28;20048;-83
2023/05/10 05:16:02;;;;;;;12.27;7.85;;;12.40;99.90;;;;;;5131781;28;20544;-83
2023/05/10 05:18:29;;;;;;;15.10;8.63;;;12.40;99.90;;;;;;5149428;28;20036;-83
2023/05/10 05:20:56;;;;;;;12.63;7.43;;;12.50;99.90;;;;;;5131917;28;20085;-83
2023/05/10 05:23:24;;;;;;;13.82;7.45;;;12.40;99.90;;;;;;5115760;28;20048;-84
2023/05/10 05:25:52;;;;;;;12.70;7.10;;;12.40;99.90;;;;;;5134654;27;20403;-83
2023/05/10 05:28:22;;;;;;;11.95;6.80;;;12.40;99.90;;;;;;5118840;27;20039;-83
2023/05/10 05:30:48;;;;;;;12.65;7.25;;;12.40;99.90;;;;;;5152738;27;20487;-83
2023/05/10 05:33:15;;;;;;;11.77;6.75;;;12.40;99.90;;;;;;5152791;27;20082;-83
2023/05/10 05:35:47;;;;;;;10.90;7.10;;;12.40;99.90;;;;;;5135993;27;20035;-83
2023/05/10 05:38:14;;;;;;;12.85;7.18;;;12.40;99.90;;;;;;5131675;28;20415;-83
2023/05/10 05:40:41;;;;;;;9.40;6.25;;;12.40;99.90;;;;;;5115212;28;20051;-83
2023/05/10 05:43:07;;;;;;;10.43;6.25;;;12.40;99.90;;;;;;5098609;28;20132;-83
2023/05/10 05:45:34;;;;;;;10.40;5.97;;;12.50;99.90;;;;;;5099477;28;20059;-83
2023/05/10 05:48:01;;;;;;;8.23;5.65;;;12.50;99.90;;;;;;5145171;27;20039;-83
2023/05/10 05:50:27;;;;;;;11.20;6.05;;;12.50;99.90;;;;;;5140653;27;20050;-83
2023/05/10 05:52:55;;;;;;;12.52;6.05;;;12.40;99.90;;;;;;5120177;27;20089;-84
2023/05/10 05:55:21;;;;;;;8.32;5.20;;;12.40;99.90;;;;;;5128717;28;20071;-82
2023/05/10 05:57:48;;;;;;;9.35;5.70;;;12.40;99.90;;;;;;5114491;28;20122;-81
2023/05/10 06:00:15;;;;;;;11.35;5.97;;;12.40;99.90;;;;;;5097499;28;20040;-82
2023/05/10 06:02:42;;;;;;;11.07;5.35;;;12.40;99.90;;;;;;5114765;28;20097;-82
2023/05/10 06:05:08;;;;;;;7.78;5.00;;;12.40;99.90;;;;;;5130900;28;20040;-82
2023/05/10 06:07:38;;;;;;;6.97;4.82;;;12.40;99.90;;;;;;5133312;27;20126;-82
2023/05/10 06:10:05;;;;;;;7.57;4.78;;;12.40;99.90;;;;;;5118477;27;20122;-82
2023/05/10 06:12:32;;;;;;;7.63;4.65;;;12.30;99.90;;;;;;5134828;27;20082;-82
2023/05/10 06:14:59;;;;;;;6.85;4.45;;;12.40;99.90;;;;;;5134688;27;20463;-82
2023/05/10 06:17:26;;;;;;;6.43;3.97;;;12.40;99.90;;;;;;5117507;27;20475;-82
2023/05/10 06:19:53;;;;;;;6.72;4.15;;;12.40;99.90;;;;;;5134354;27;20483;-82
2023/05/10 06:22:21;;;;;;;6.28;3.83;;;12.40;99.90;;;;;;5134223;27;20041;-83
2023/05/10 06:24:48;;;;;;;6.20;3.60;;;12.40;99.90;;;;;;5134655;27;20031;-83
2023/05/10 06:27:15;;;;;;;5.85;3.42;;;12.40;99.90;;;;;;5130609;27;20035;-83
2023/05/10 06:29:42;;;;;;;4.28;2.40;;;12.40;99.90;;;;;;5097772;28;20042;-81
2023/05/10 06:32:08;;;;;;;5.30;2.50;;;12.40;99.90;;;;;;5097006;28;20046;-82
2023/05/10 06:34:36;;;;;;;4.05;2.42;;;12.40;99.90;;;;;;5097325;28;20085;-83
2023/05/10 06:37:03;;;;;;;5.88;2.40;;;12.40;99.90;;;;;;5104517;27;20039;-83
2023/05/10 06:39:30;;;;;;;4.30;2.33;;;12.30;99.90;;;;;;5135118;28;20124;-83
2023/05/10 06:41:56;;;;;;;3.85;2.28;;;12.40;99.90;;;;;;5109944;27;20073;-82
2023/05/10 06:44:23;;;;;;;4.80;2.08;;;12.40;99.90;;;;;;5117715;27;20050;-83
2023/05/10 06:46:50;;;;;;;3.45;1.98;;;12.40;99.90;;;;;;5110503;27;20135;-83
2023/05/10 06:49:17;;;;;;;4.43;1.70;;;12.40;99.90;;;;;;5146316;27;20043;-83
2023/05/10 06:51:43;;;;;;;3.63;1.70;;;12.30;99.90;;;;;;5117309;27;20450;-82
2023/05/10 06:54:10;;;;;;;3.35;1.48;;;12.30;99.90;;;;;;5133620;27;20075;-82
2023/05/10 06:56:37;;;;;;;3.85;1.80;;;12.30;99.90;;;;;;5116822;27;20042;-83
2023/05/10 06:59:03;;;;;;;3.33;1.67;;;12.30;99.90;;;;;;5133743;27;20483;-82
2023/05/10 07:01:30;;;;;;;3.00;1.55;;;12.30;99.90;;;;;;5133952;27;20043;-82
2023/05/10 07:03:57;;;;;;;3.17;1.70;;;12.30;99.90;;;;;;5117091;27;20047;-83
2023/05/10 07:06:23;;;;;;;2.97;1.58;;;12.30;99.90;;;;;;5116218;27;20058;-83
2023/05/10 07:08:50;;;;;;;2.30;1.23;;;12.40;99.90;;;;;;5116963;27;20145;-83
2023/05/10 07:11:17;;;;;;;1.77;1.10;;;12.30;99.90;;;;;;5133525;27;20413;-83
2023/05/10 07:13:45;;;;;;;2.45;1.30;;;12.40;99.90;;;;;;5133741;27;20380;-83
2023/05/10 07:16:12;;;;;;;3.33;1.40;;;12.40;99.90;;;;;;5117457;27;20039;-83
2023/05/10 07:18:39;;;;;;;2.92;1.42;;;12.40;99.90;;;;;;5116930;27;20108;-83
2023/05/10 07:21:06;;;;;;;2.72;1.20;;;12.40;99.90;;;;;;5117347;27;20038;-83
2023/05/10 07:23:33;;;;;;;2.47;1.30;;;12.40;99.90;;;;;;5133493;27;20050;-81
2023/05/10 07:26:00;;;;;;;2.03;1.10;;;12.50;99.90;;;;;;5136758;28;20126;-82
2023/05/10 07:28:26;;;;;;;2.38;1.20;;;12.50;99.90;;;;;;5112576;28;20106;-82
2023/05/10 07:30:53;;;;;;;2.53;1.20;;;12.50;99.90;;;;;;5112798;28;20039;-82
2023/05/10 07:33:20;;;;;;;2.10;0.90;;;12.60;99.90;;;;;;5102510;27;20682;-82
2023/05/10 07:35:46;;;;;;;3.03;0.90;;;12.50;99.90;;;;;;5126229;28;20034;-83
2023/05/10 07:38:13;;;;;;;1.38;0.80;;;12.60;99.90;;;;;;5095857;28;20258;-83
2023/05/10 07:40:40;;;;;;;1.63;0.90;;;12.50;99.90;;;;;;5112504;28;20032;-83
2023/05/10 07:43:07;;;;;;;1.33;0.77;;;12.50;99.90;;;;;;5113185;28;20038;-83
2023/05/10 07:45:34;;;;;;;1.95;0.95;;;12.50;99.90;;;;;;5099039;28;20095;-82
2023/05/10 07:48:00;;;;;;;2.63;1.15;;;12.40;99.90;;;;;;5132911;28;20046;-83
2023/05/10 07:50:27;;;;;;;2.60;1.13;;;12.40;99.90;;;;;;5149975;28;20574;-83
2023/05/10 07:52:54;;;;;;;2.22;1.20;;;12.40;99.90;;;;;;5133256;28;20172;-83
2023/05/10 07:55:21;;;;;;;3.25;1.20;;;12.40;99.90;;;;;;5149544;28;20042;-83
2023/05/10 07:57:48;;;;;;;2.78;1.38;;;12.40;99.90;;;;;;5131852;28;20040;-82
2023/05/10 08:00:18;;;;;;;2.95;1.40;;;12.40;99.90;;;;;;5096204;28;20042;-83
2023/05/10 08:02:45;;;;;;;3.40;1.90;;;12.40;99.90;;;;;;5129414;28;20035;-83
2023/05/10 08:05:11;;;;;;;3.15;1.52;;;12.40;99.90;;;;;;5112957;28;20053;-83
2023/05/10 08:07:38;;;;;;;3.10;1.50;;;12.40;99.90;;;;;;5129173;28;20109;-82
2023/05/10 08:10:05;;;;;;;3.05;1.58;;;12.40;99.90;;;;;;5112354;28;20043;-83
2023/05/10 08:12:32;;;;;;;2.80;1.50;;;12.40;99.90;;;;;;5112496;28;20043;-83
2023/05/10 08:14:59;;;;;;;3.40;1.73;;;12.40;99.90;;;;;;5095811;28;20044;-83
2023/05/10 08:17:26;;;;;;;3.22;1.88;;;12.40;99.90;;;;;;5107388;28;20495;-83
2023/05/10 08:19:52;;;;;;;3.40;1.98;;;12.50;99.90;;;;;;5116430;28;20043;-83
2023/05/10 08:22:19;;;;;;;2.95;1.88;;;12.50;99.90;;;;;;5099628;28;20376;-84
2023/05/10 08:24:46;;;;;;;3.85;2.05;;;12.50;99.90;;;;;;5108443;28;20047;-83
2023/05/10 08:27:12;;;;;;;3.50;1.80;;;12.50;99.90;;;;;;5118174;28;20047;-83
2023/05/10 08:29:39;;;;;;;3.53;2.10;;;12.50;99.90;;;;;;5110550;28;20126;-83
2023/05/10 08:32:06;;;;;;;4.55;2.55;;;12.50;99.90;;;;;;5118860;28;20415;-83
2023/05/10 08:34:33;;;;;;;5.70;2.92;;;12.50;99.90;;;;;;5133133;28;20038;-84
2023/05/10 08:36:59;;;;;;;5.82;3.40;;;12.50;99.90;;;;;;5132263;28;20077;-84
2023/05/10 08:39:26;;;;;;;7.40;3.97;;;12.50;99.90;;;;;;5115880;28;20051;-84
2023/05/10 08:41:57;;;;;;;6.78;3.70;;;12.50;99.90;;;;;;5116373;28;20035;-84
2023/05/10 08:44:24;;;;;;;7.15;4.07;;;12.50;99.90;;;;;;5132989;28;20055;-84
2023/05/10 08:46:54;;;;;;;7.55;3.95;;;12.60;99.90;;;;;;5149959;28;20051;-84
2023/05/10 08:49:21;;;;;;;5.05;3.40;;;12.50;99.90;;;;;;5116627;28;20039;-84
2023/05/10 08:51:52;;;;;;;5.85;3.42;;;12.50;99.90;;;;;;5149909;28;20051;-84
2023/05/10 08:54:18;;;;;;;5.55;3.33;;;12.40;99.90;;;;;;5149477;28;20047;-84
2023/05/10 08:56:46;;;;;;;6.15;3.28;;;12.40;99.90;;;;;;5115735;28;20036;-83
2023/05/10 08:59:14;;;;;;;4.90;2.92;;;12.40;99.90;;;;;;5115818;28;20050;-83
2023/05/10 09:01:42;;;;;;;5.78;3.72;;;12.50;99.90;;;;;;5132166;28;20035;-84
2023/05/10 09:04:08;;;;;;;5.07;3.17;;;12.50;99.90;;;;;;5132735;28;20483;-83
2023/05/10 09:06:36;;;;;;;5.13;3.20;;;12.50;99.90;;;;;;5115252;27;20103;-83
2023/05/10 09:09:03;;;;;;;5.22;2.90;;;12.50;99.90;;;;;;5128346;27;20038;-83
2023/05/10 09:11:30;;;;;;;4.45;3.05;;;12.50;99.90;;;;;;5109949;27;20053;-85
2023/05/10 09:13:56;;;;;;;7.22;3.22;;;12.50;99.90;;;;;;5118501;27;20503;-84
2023/05/10 09:16:24;;;;;;;5.03;3.50;;;12.50;99.90;;;;;;5135486;27;20099;-84
2023/05/10 09:18:50;;;;;;;4.75;3.28;;;12.60;99.90;;;;;;5135679;27;20070;-84
2023/05/10 09:21:19;;;;;;;5.35;3.50;;;12.60;99.90;;;;;;5115571;28;20063;-84
2023/05/10 09:23:49;;;;;;;5.68;3.45;;;12.60;99.90;;;;;;5116703;27;20046;-84
2023/05/10 09:26:17;;;;;;;5.90;3.28;;;12.50;99.90;;;;;;5147280;27;20039;-83
2023/05/10 09:28:52;;;;;;;4.75;3.38;;;12.60;99.90;;;;;;5097992;28;20542;-84
2023/05/10 09:31:19;;;;;;;4.82;3.20;;;12.70;99.90;;;;;;5132459;28;20507;-83
2023/05/10 09:33:48;;;;;;;5.32;3.67;;;12.70;99.90;;;;;;5125778;27;20410;-83
2023/05/10 09:36:16;;;;;;;4.55;3.22;;;12.80;99.90;;;;;;5118655;27;20388;-84
2023/05/10 09:38:53;;;;;;;6.20;3.83;;;12.80;99.90;;;;;;5151558;27;20047;-83
2023/05/10 09:41:22;;;;;;;5.28;3.28;;;12.80;99.90;;;;;;5135785;27;20051;-83
2023/05/10 09:43:49;;;;;;;4.90;3.30;;;12.80;99.90;;;;;;5131766;28;20036;-84
2023/05/10 09:46:16;;;;;;;4.65;3.10;;;12.80;99.90;;;;;;5131519;28;20132;-84
2023/05/10 09:48:47;;;;;;;4.93;3.50;;;12.90;99.90;;;;;;5133586;27;20497;-83
2023/05/10 09:51:24;;;;;;;5.75;3.40;;;12.90;99.90;;;;;;5151926;27;20050;-84
2023/05/10 09:54:11;;;;;;;4.90;3.10;;;12.90;99.90;;;;;;5130726;28;20067;-84
2023/05/10 09:56:40;;;;;;;4.53;3.38;;;12.90;99.90;;;;;;5142051;28;20409;-84
2023/05/10 09:59:09;;;;;;;5.00;3.13;;;12.80;99.90;;;;;;5139395;28;20503;-84
2023/05/10 10:01:37;;;;;;;3.45;2.42;;;12.90;99.90;;;;;;5136556;27;20119;-84
2023/05/10 10:04:05;;;;;;;5.18;2.70;;;12.90;99.90;;;;;;5141244;28;20451;-84
2023/05/10 10:06:39;;;;;;;4.60;2.90;;;12.90;99.90;;;;;;5097994;28;20038;-84
2023/05/10 10:09:07;;;;;;;4.45;2.75;;;13.00;99.90;;;;;;5148949;27;20043;-85
2023/05/10 10:11:38;;;;;;;4.80;2.80;;;13.00;99.90;;;;;;5152110;27;20053;-84
2023/05/10 10:14:05;;;;;;;3.80;2.55;;;12.90;99.90;;;;;;5149223;27;20047;-84
2023/05/10 10:16:32;;;;;;;4.93;3.10;;;12.90;99.90;;;;;;5102896;28;20074;-84
2023/05/10 10:19:00;;;;;;;4.80;2.80;;;13.00;99.90;;;;;;5131774;28;20067;-85
2023/05/10 10:21:27;;;;;;;3.72;2.47;;;13.00;99.90;;;;;;5147119;27;20450;-85
2023/05/10 10:23:54;;;;;;;3.65;1.98;;;13.00;99.90;;;;;;5134969;27;20082;-85
2023/05/10 10:26:21;;;;;;;3.95;2.00;;;13.10;99.90;;;;;;5151530;27;20039;-84
2023/05/10 10:28:48;;;;;;;3.00;2.05;;;13.20;99.90;;;;;;5114985;27;20126;-84
2023/05/10 10:31:26;;;;;;;3.58;2.05;;;13.30;99.90;;;;;;5136338;27;20049;-84
2023/05/10 10:34:01;;;;;;;4.32;2.00;;;13.40;99.90;;;;;;5150603;27;20027;-84
2023/05/10 10:36:30;;;;;;;4.10;2.20;;;13.50;99.90;;;;;;5151837;27;20650;-84
2023/05/10 10:39:01;;;;;;;4.15;2.30;;;13.50;99.90;;;;;;5134051;27;20805;-84
2023/05/10 10:41:30;;;;;;;3.70;2.20;;;13.50;99.90;;;;;;5151012;27;20068;-84
2023/05/10 10:44:22;;;;;;;4.25;2.53;;;13.40;99.90;;;;;;5167936;27;20039;-84
2023/05/10 10:47:12;;;;;;;4.65;2.33;;;13.40;99.90;;;;;;5150739;27;20502;-84
2023/05/10 10:49:48;;;;;;;4.85;2.70;;;13.30;99.90;;;;;;5167989;27;20038;-84
2023/05/10 10:52:21;;;;;;;4.78;3.10;;;13.40;99.90;;;;;;5145412;28;20040;-83
2023/05/10 10:54:56;;;;;;;4.82;3.20;;;13.30;99.90;;;;;;5140177;28;20051;-83
2023/05/10 10:57:26;;;;;;;7.20;3.10;;;13.40;99.90;;;;;;5131634;28;20036;-83
2023/05/10 11:00:33;;;;;;;4.68;3.25;;;13.50;99.90;;;;;;5130562;28;20139;-84
2023/05/10 11:03:06;;;;;;;5.22;3.40;;;13.70;99.90;;;;;;5138545;27;20483;-83
2023/05/10 11:05:36;;;;;;;5.25;3.45;;;13.80;99.90;;;;;;5151024;27;20079;-84
2023/05/10 11:08:30;;;;;;;5.95;3.85;;;13.90;99.90;;;;;;5150640;27;20711;-84
2023/05/10 11:11:00;;;;;;;5.57;3.67;;;14.00;99.90;;;;;;5147848;27;20058;-83
2023/05/10 11:13:32;;;;;;;5.28;3.00;;;14.10;99.90;;;;;;5149784;27;20039;-83
2023/05/10 11:16:09;;;;;;;5.28;3.38;;;14.10;99.90;;;;;;5136937;28;20483;-83
2023/05/10 11:18:37;;;;;;;5.40;3.35;;;14.10;99.90;;;;;;5142591;27;20129;-83
2023/05/10 11:21:06;;;;;;;4.63;3.33;;;14.10;99.90;;;;;;5119923;28;20036;-84
2023/05/10 11:23:48;;;;;;;5.97;3.65;;;14.10;99.90;;;;;;5137597;28;20043;-83
2023/05/10 11:26:15;;;;;;;5.55;3.63;;;14.10;99.90;;;;;;5148018;27;20510;-84
2023/05/10 11:28:46;;;;;;;5.22;3.60;;;14.10;99.90;;;;;;5116626;28;20130;-84
2023/05/10 11:31:15;;;;;;;5.28;3.47;;;14.20;99.90;;;;;;5134039;27;20039;-84
2023/05/10 11:33:46;;;;;;;6.68;4.15;;;14.30;99.90;;;;;;5150241;28;20495;-85
2023/05/10 11:36:16;;;;;;;5.72;3.60;;;14.30;99.90;;;;;;5120944;28;20116;-85
2023/05/10 11:38:43;;;;;;;5.68;3.35;;;14.40;99.90;;;;;;5112970;28;20273;-84
2023/05/10 11:41:12;;;;;;;6.07;3.40;;;14.30;99.90;;;;;;5127047;28;20114;-85
2023/05/10 11:43:42;;;;;;;5.95;3.70;;;14.40;99.90;;;;;;5133714;28;20446;-83
2023/05/10 11:46:12;;;;;;;8.60;3.47;;;14.40;99.90;;;;;;5131552;28;20202;-84
2023/05/10 11:48:39;;;;;;;4.75;3.35;;;14.50;99.90;;;;;;5167315;28;20039;-85
2023/05/10 11:51:10;;;;;;;6.00;2.83;;;14.40;99.90;;;;;;5132535;27;20039;-83
2023/05/10 11:53:37;;;;;;;4.20;2.50;;;14.50;99.90;;;;;;5135618;27;20074;-82
2023/05/10 11:56:11;;;;;;;3.70;2.10;;;14.40;99.90;;;;;;5112423;27;20031;-83
2023/05/10 11:58:39;;;;;;;3.65;1.88;;;14.40;99.90;;;;;;5148365;27;20031;-83
2023/05/10 12:01:08;;;;;;;4.47;1.92;;;14.50;99.90;;;;;;5143064;27;20081;-82
2023/05/10 12:03:36;;;;;;;7.50;1.77;;;14.40;99.90;;;;;;5137506;27;20389;-83
2023/05/10 12:06:03;;;;;;;3.30;1.75;;;14.40;99.90;;;;;;5131982;28;20044;-83
2023/05/10 12:08:30;;;;;;;3.55;1.80;;;14.40;99.90;;;;;;5133624;28;20564;-83
2023/05/10 12:11:10;;;;;;;4.60;2.05;;;14.40;99.90;;;;;;5142712;27;20096;-83
2023/05/10 12:13:41;;;;;;;3.13;1.75;;;14.40;99.90;;;;;;5137468;27;20039;-83
2023/05/10 12:16:20;;;;;;;3.88;2.03;;;14.40;99.90;;;;;;5153260;27;20035;-83
2023/05/10 12:18:51;;;;;;;4.10;2.10;;;14.40;99.90;;;;;;5153701;27;20117;-83
2023/05/10 12:21:20;;;;;;;4.93;2.50;;;14.40;99.90;;;;;;5153541;27;20039;-83
2023/05/10 12:23:49;;;;;;;4.15;2.05;;;14.50;99.90;;;;;;5153472;27;20388;-84
2023/05/10 12:26:16;;;;;;;5.13;2.40;;;14.50;99.90;;;;;;5153760;27;20039;-83
2023/05/10 12:28:44;;;;;;;4.15;2.20;;;14.50;99.90;;;;;;5142724;27;20092;-82
2023/05/10 12:31:10;;;;;;;3.40;2.10;;;14.50;99.90;;;;;;5149950;27;20132;-83
2023/05/10 12:33:45;;;;;;;5.18;2.60;;;14.60;99.90;;;;;;5119794;27;20039;-83
2023/05/10 12:36:14;;;;;;;4.60;2.40;;;14.70;99.90;;;;;;5154534;27;20035;-83
2023/05/10 12:38:43;;;;;;;3.90;2.30;;;14.60;99.90;;;;;;5152864;27;20055;-83
2023/05/10 12:41:12;;;;;;;4.93;2.90;;;14.70;99.90;;;;;;5136834;28;20046;-83
2023/05/10 12:43:40;;;;;;;5.55;3.22;;;14.70;99.90;;;;;;5148239;27;20071;-84
2023/05/10 12:46:10;;;;;;;6.57;3.67;;;14.70;99.90;;;;;;5142389;28;20080;-83
2023/05/10 12:48:39;;;;;;;6.63;3.85;;;14.70;99.90;;;;;;5115947;28;20039;-83
2023/05/10 12:51:09;;;;;;;7.95;4.13;;;14.60;99.90;;;;;;5133656;27;20106;-83
2023/05/10 12:53:37;;;;;;;7.65;4.30;;;14.50;99.90;;;;;;5111127;28;20040;-83